Time;durP1;ratioP1;P1;durP2;ratioP2;P2;SDS_P1;SDS_P2;PMS_P1;PMS_P2;Temp;Humidity;BMP_temperature;BMP_pressure;BME280_temperature;BME280_humidity;BME280_pressure;Samples;Min_cycle;Max_cycle;Signal;HPM_P1;HPM_P2
2023/11/20 00:02:09;;;;;;;8.75;1.77;;;;;;;8.76;100.00;97121.19;5044820;28;20045;-62
2023/11/20 00:04:36;;;;;;;8.77;1.50;;;;;;;8.85;100.00;97123.22;5050267;28;20036;-62
2023/11/20 00:07:05;;;;;;;6.88;1.60;;;;;;;8.89;100.00;97122.72;5044075;28;20540;-62
2023/11/20 00:09:32;;;;;;;7.43;1.65;;;;;;;8.78;100.00;97125.28;5040787;28;20689;-62
2023/11/20 00:11:59;;;;;;;8.07;1.70;;;;;;;8.76;100.00;97131.97;5035240;28;20405;-62
2023/11/20 00:14:25;;;;;;;11.05;1.88;;;;;;;8.80;100.00;97133.94;5039842;28;20424;-62
2023/11/20 00:16:52;;;;;;;9.38;1.83;;;;;;;8.70;100.00;97129.19;5046213;28;20051;-63
2023/11/20 00:19:18;;;;;;;7.93;1.90;;;;;;;8.70;100.00;97125.69;5044861;28;20049;-62
2023/11/20 00:21:45;;;;;;;8.13;1.25;;;;;;;8.69;100.00;97126.75;5037929;28;20059;-62
2023/11/20 00:24:12;;;;;;;9.95;1.63;;;;;;;8.64;100.00;97127.50;5033636;28;20068;-61
2023/11/20 00:26:38;;;;;;;14.85;1.92;;;;;;;8.64;100.00;97119.41;5043168;28;20049;-62
2023/11/20 00:29:05;;;;;;;12.30;2.75;;;;;;;8.67;100.00;97128.88;5040282;28;20491;-62
2023/11/20 00:31:34;;;;;;;14.77;2.03;;;;;;;8.70;100.00;97126.50;5042245;28;20450;-61
2023/11/20 00:34:01;;;;;;;10.80;1.70;;;;;;;8.65;100.00;97117.50;5046825;28;20596;-61
2023/11/20 00:36:28;;;;;;;10.95;1.63;;;;;;;8.62;100.00;97123.41;5043302;28;20052;-61
2023/11/20 00:38:55;;;;;;;9.75;2.22;;;;;;;8.65;100.00;97117.50;5052818;28;20032;-62
2023/11/20 00:41:22;;;;;;;8.82;1.38;;;;;;;8.84;100.00;97121.59;5033976;28;20040;-62
2023/11/20 00:43:48;;;;;;;14.13;2.28;;;;;;;8.85;100.00;97130.53;5044810;28;20040;-61
2023/11/20 00:46:15;;;;;;;8.52;1.30;;;;;;;8.77;100.00;97129.03;5040379;28;20501;-62
2023/11/20 00:48:44;;;;;;;11.75;1.63;;;;;;;8.74;100.00;97124.16;5045842;28;20050;-62
2023/11/20 00:51:11;;;;;;;8.18;1.67;;;;;;;8.79;100.00;97112.59;5039645;28;20041;-62
2023/11/20 00:53:38;;;;;;;9.68;1.88;;;;;;;8.83;100.00;97121.84;5048843;28;20033;-62
2023/11/20 00:56:05;;;;;;;9.38;1.73;;;;;;;8.77;100.00;97118.25;5039430;28;20057;-62
2023/11/20 00:58:32;;;;;;;13.40;2.25;;;;;;;8.85;100.00;97130.53;5046035;28;20048;-62
2023/11/20 01:00:58;;;;;;;10.73;1.67;;;;;;;8.84;100.00;97134.25;5038553;28;20500;-63
2023/11/20 01:03:25;;;;;;;13.05;1.35;;;;;;;8.92;100.00;97133.06;5043627;28;20490;-62
2023/11/20 01:05:52;;;;;;;10.77;1.83;;;;;;;9.02;100.00;97130.50;5048313;28;20040;-62
2023/11/20 01:08:19;;;;;;;10.18;1.73;;;;;;;8.92;100.00;97131.16;5044769;28;20045;-62
2023/11/20 01:10:45;;;;;;;11.50;2.38;;;;;;;8.94;100.00;97123.63;5047252;28;20041;-62
2023/11/20 01:13:12;;;;;;;9.45;1.85;;;;;;;8.83;100.00;97125.38;5045775;28;20131;-63
2023/11/20 01:15:38;;;;;;;9.80;1.42;;;;;;;8.91;100.00;97137.63;5045485;28;20381;-62
2023/11/20 01:18:05;;;;;;;10.93;2.03;;;;;;;9.01;100.00;97139.66;5052762;28;20057;-62
2023/11/20 01:20:33;;;;;;;9.23;1.50;;;;;;;9.02;100.00;97129.66;5049723;28;20084;-62
2023/11/20 01:23:00;;;;;;;11.05;2.05;;;;;;;9.15;100.00;97133.91;5058267;28;20075;-63
2023/11/20 01:25:27;;;;;;;11.80;1.85;;;;;;;9.14;100.00;97130.38;5039857;28;20056;-63
2023/11/20 01:27:53;;;;;;;14.65;2.33;;;;;;;9.19;100.00;97125.06;5049761;28;20045;-62
2023/11/20 01:30:20;;;;;;;6.63;1.45;;;;;;;9.11;100.00;97128.19;5053466;28;20040;-62
2023/11/20 01:32:47;;;;;;;12.85;1.90;;;;;;;9.06;100.00;97133.50;5041458;28;20029;-63
2023/11/20 01:35:14;;;;;;;12.50;2.00;;;;;;;9.09;100.00;97136.53;5046089;28;20676;-63
2023/11/20 01:37:41;;;;;;;7.68;2.03;;;;;;;9.13;100.00;97136.84;5055108;28;20848;-62
2023/11/20 01:40:08;;;;;;;8.65;1.85;;;;;;;9.15;100.00;97142.84;5051358;28;20106;-62
2023/11/20 01:42:36;;;;;;;9.65;1.90;;;;;;;9.14;100.00;97130.38;5049005;28;20043;-62
2023/11/20 01:45:03;;;;;;;8.18;1.83;;;;;;;9.22;100.00;97129.97;5055974;28;20041;-62
2023/11/20 01:47:29;;;;;;;12.27;1.48;;;;;;;9.22;100.00;97121.06;5044753;28;20531;-63
2023/11/20 01:49:56;;;;;;;12.38;2.05;;;;;;;9.21;100.00;97117.53;5040006;28;20069;-62
2023/11/20 01:52:23;;;;;;;9.18;1.77;;;;;;;9.28;100.00;97119.25;5056402;28;20033;-62
2023/11/20 01:54:52;;;;;;;11.57;1.88;;;;;;;9.18;100.00;97122.63;5044611;28;20489;-62
2023/11/20 01:57:19;;;;;;;10.27;2.10;;;;;;;9.21;100.00;97127.50;5056242;28;20649;-63
2023/11/20 01:59:45;;;;;;;7.57;1.98;;;;;;;9.24;100.00;97117.03;5058663;28;20039;-61
2023/11/20 02:02:12;;;;;;;5.97;1.08;;;;;;;9.37;100.00;97117.75;5055927;28;20055;-62
2023/11/20 02:04:41;;;;;;;9.05;1.65;;;;;;;9.39;100.00;97121.00;5043462;28;20052;-62
2023/11/20 02:07:08;;;;;;;6.88;1.13;;;;;;;9.37;100.00;97115.03;5046687;28;20060;-63
2023/11/20 02:09:35;;;;;;;6.28;1.10;;;;;;;9.44;100.00;97120.25;5043474;28;20033;-62
2023/11/20 02:12:02;;;;;;;7.50;1.35;;;;;;;9.42;100.00;97108.84;5057533;28;20338;-63
2023/11/20 02:14:28;;;;;;;8.52;1.73;;;;;;;9.48;100.00;97116.78;5053637;28;20442;-62
2023/11/20 02:16:55;;;;;;;11.15;1.70;;;;;;;9.47;100.00;97104.34;5041372;28;20447;-62
2023/11/20 02:19:21;;;;;;;8.02;1.60;;;;;;;9.46;100.00;97102.72;5042083;28;20056;-63
2023/11/20 02:21:48;;;;;;;9.73;1.88;;;;;;;9.41;100.00;97102.66;5056409;28;20040;-62
2023/11/20 02:24:14;;;;;;;8.98;1.70;;;;;;;9.46;100.00;97108.13;5041154;28;20607;-62
2023/11/20 02:27:02;;;;;;;10.93;1.88;;;;;;;9.54;100.00;97108.75;5045972;28;20044;-63
2023/11/20 02:29:31;;;;;;;10.57;2.10;;;;;;;9.45;100.00;97111.06;5048461;28;20048;-63
2023/11/20 02:31:58;;;;;;;7.82;1.13;;;;;;;9.50;100.00;97111.97;5047638;28;20044;-63
2023/11/20 02:34:25;;;;;;;9.57;1.92;;;;;;;9.39;100.00;97106.69;5049918;28;20044;-62
2023/11/20 02:36:51;;;;;;;7.80;1.60;;;;;;;9.35;100.00;97095.53;5045273;28;20411;-63
2023/11/20 02:39:18;;;;;;;6.80;2.00;;;;;;;9.43;100.00;97095.09;5054587;28;20074;-63
2023/11/20 02:41:45;;;;;;;12.07;1.48;;;;;;;9.44;100.00;97104.84;5045893;28;20622;-63
2023/11/20 02:44:12;;;;;;;10.77;2.05;;;;;;;9.65;100.00;97098.88;5045790;28;20037;-63
2023/11/20 02:46:38;;;;;;;13.07;2.65;;;;;;;9.73;100.00;97095.72;5047351;28;20047;-62
2023/11/20 02:49:05;;;;;;;14.05;2.13;;;;;;;9.64;100.00;97108.88;5023032;28;20126;-63
2023/11/20 02:51:33;;;;;;;13.02;2.47;;;;;;;9.65;100.00;97109.69;5044663;28;20501;-63
2023/11/20 02:53:59;;;;;;;7.07;1.20;;;;;;;9.71;100.00;97105.97;5043255;28;20163;-63
2023/11/20 02:56:26;;;;;;;12.70;2.05;;;;;;;9.66;100.00;97100.50;5038589;28;20116;-62
2023/11/20 02:58:53;;;;;;;12.23;1.98;;;;;;;9.79;100.00;97094.72;5050151;28;20036;-62
2023/11/20 03:01:19;;;;;;;14.00;1.45;;;;;;;9.85;100.00;97098.28;5050901;28;20041;-62
2023/11/20 03:03:46;;;;;;;12.38;1.83;;;;;;;9.74;99.93;97100.06;5035257;28;20073;-62
2023/11/20 03:06:13;;;;;;;7.78;1.25;;;;;;;9.75;99.75;97094.41;5054943;28;20056;-63
2023/11/20 03:08:39;;;;;;;8.60;1.70;;;;;;;9.78;99.45;97094.97;5043314;28;20044;-62
2023/11/20 03:11:07;;;;;;;10.00;2.42;;;;;;;9.81;99.50;97089.03;5042552;28;20038;-63
2023/11/20 03:13:39;;;;;;;9.70;1.50;;;;;;;9.75;98.37;97093.56;5056416;28;20043;-62
2023/11/20 03:16:07;;;;;;;9.73;1.75;;;;;;;9.78;97.97;97093.06;5046605;28;20435;-61
2023/11/20 03:18:36;;;;;;;7.00;1.27;;;;;;;9.74;98.54;97105.47;5046978;28;21978;-63
2023/11/20 03:21:03;;;;;;;8.98;1.75;;;;;;;9.76;97.73;97090.63;5045326;28;20524;-62
2023/11/20 03:23:30;;;;;;;12.32;1.58;;;;;;;9.78;97.24;97094.97;5044172;28;20044;-62
2023/11/20 03:25:56;;;;;;;13.88;2.05;;;;;;;9.70;98.14;97086.22;5041279;28;20033;-63
2023/11/20 03:28:23;;;;;;;12.10;2.50;;;;;;;9.55;99.82;97081.44;5042628;28;20041;-62
2023/11/20 03:30:49;;;;;;;11.45;1.70;;;;;;;9.64;97.81;97081.84;5044883;28;20123;-61
2023/11/20 03:33:16;;;;;;;12.27;1.60;;;;;;;9.60;99.14;97078.00;5046769;28;20115;-62
2023/11/20 03:35:43;;;;;;;12.20;1.50;;;;;;;9.52;100.00;97081.16;5047792;28;20033;-62
2023/11/20 03:38:10;;;;;;;7.30;1.77;;;;;;;9.37;100.00;97077.22;5050840;28;20069;-62
2023/11/20 03:40:36;;;;;;;8.18;1.45;;;;;;;9.40;100.00;97071.28;5054855;28;20033;-62
2023/11/20 03:43:03;;;;;;;8.02;1.50;;;;;;;9.52;100.00;97067.63;5040928;28;20048;-62
2023/11/20 03:45:29;;;;;;;4.47;0.98;;;;;;;9.49;100.00;97058.97;5047998;28;20048;-62
2023/11/20 03:47:56;;;;;;;10.88;1.63;;;;;;;9.55;100.00;97056.31;5042125;28;20037;-62
2023/11/20 03:50:22;;;;;;;9.38;1.67;;;;;;;9.51;100.00;97056.00;5047956;28;20069;-63
2023/11/20 03:52:49;;;;;;;10.57;1.73;;;;;;;9.66;99.58;97063.47;5052038;28;20042;-63
2023/11/20 03:55:16;;;;;;;8.98;1.15;;;;;;;9.50;100.00;97071.41;5037895;28;20053;-64
2023/11/20 03:57:45;;;;;;;6.13;1.25;;;;;;;9.52;100.00;97070.34;5036283;28;20079;-62
2023/11/20 04:00:13;;;;;;;7.30;1.58;;;;;;;9.50;100.00;97068.72;5039082;28;20049;-62
2023/11/20 04:02:41;;;;;;;9.98;1.20;;;;;;;9.50;100.00;97073.28;5042017;28;20041;-63
2023/11/20 04:05:09;;;;;;;10.10;1.65;;;;;;;9.54;100.00;97076.31;5035229;28;21858;-63
2023/11/20 04:07:36;;;;;;;10.80;2.08;;;;;;;9.65;99.80;97064.53;5033242;28;20049;-63
2023/11/20 04:10:04;;;;;;;5.88;1.00;;;;;;;9.53;100.00;97063.84;5050270;28;20527;-62
2023/11/20 04:12:31;;;;;;;13.88;2.05;;;;;;;9.54;100.00;97066.31;5044716;28;20135;-62
2023/11/20 04:14:58;;;;;;;7.95;1.20;;;;;;;9.50;100.00;97060.59;5041409;28;20132;-64
2023/11/20 04:17:24;;;;;;;7.43;1.83;;;;;;;9.42;100.00;97061.03;5039347;28;20041;-62
2023/11/20 04:19:51;;;;;;;13.75;2.13;;;;;;;9.26;100.00;97065.44;5038898;28;20053;-63
2023/11/20 04:22:18;;;;;;;10.13;2.65;;;;;;;9.15;100.00;97075.31;5033250;28;20045;-63
2023/11/20 04:24:45;;;;;;;11.93;2.35;;;;;;;9.09;100.00;97068.19;5034715;28;20037;-63
2023/11/20 04:27:11;;;;;;;5.20;1.20;;;;;;;9.13;100.00;97063.94;5042250;28;20040;-62
2023/11/20 04:29:38;;;;;;;8.23;1.40;;;;;;;9.06;100.00;97064.13;5053702;28;20033;-63
2023/11/20 04:32:05;;;;;;;9.98;1.50;;;;;;;9.04;100.00;97060.03;5041103;28;20037;-62
2023/11/20 04:34:31;;;;;;;5.97;1.10;;;;;;;9.09;100.00;97060.09;5030704;28;20128;-62
2023/11/20 04:36:58;;;;;;;9.25;1.42;;;;;;;9.15;100.00;97055.56;5034315;28;20086;-63
2023/11/20 04:39:24;;;;;;;6.45;1.02;;;;;;;9.23;100.00;97049.75;5040011;28;20048;-62
2023/11/20 04:41:51;;;;;;;7.78;1.73;;;;;;;9.29;100.00;97046.03;5050154;28;20385;-63
2023/11/20 04:44:18;;;;;;;9.43;1.35;;;;;;;9.14;100.00;97035.84;5049892;28;20051;-63
2023/11/20 04:46:44;;;;;;;10.73;1.75;;;;;;;9.23;100.00;97039.75;5038546;28;20041;-63
2023/11/20 04:49:12;;;;;;;6.68;1.40;;;;;;;9.23;100.00;97038.94;5037613;28;20075;-62
2023/11/20 04:51:38;;;;;;;6.85;1.20;;;;;;;9.26;100.00;97041.13;5036728;28;20037;-63
2023/11/20 04:54:05;;;;;;;8.50;1.20;;;;;;;9.26;100.00;97045.72;5027417;28;20068;-62
2023/11/20 04:56:32;;;;;;;10.52;2.20;;;;;;;9.22;100.00;97043.50;5046673;28;20048;-62
2023/11/20 04:58:59;;;;;;;6.03;1.33;;;;;;;9.09;100.00;97043.88;5045656;28;20044;-63
2023/11/20 05:01:26;;;;;;;10.38;1.75;;;;;;;9.12;100.00;97048.78;5037668;28;20049;-62
2023/11/20 05:03:53;;;;;;;8.23;1.40;;;;;;;9.16;100.00;97047.22;5029582;28;20547;-63
2023/11/20 05:06:19;;;;;;;10.20;1.70;;;;;;;9.21;100.00;97046.47;5038065;28;20132;-62
2023/11/20 05:08:46;;;;;;;9.65;1.98;;;;;;;9.17;100.00;97046.16;5037630;28;20540;-62
2023/11/20 05:11:13;;;;;;;6.15;1.02;;;;;;;9.26;100.00;97043.00;5048119;28;20032;-63
2023/11/20 05:13:40;;;;;;;8.93;1.38;;;;;;;9.19;100.00;97035.94;5037330;28;20099;-62
2023/11/20 05:16:06;;;;;;;8.50;1.65;;;;;;;9.26;100.00;97037.63;5043588;28;20037;-63
2023/11/20 05:18:33;;;;;;;13.70;1.83;;;;;;;9.19;100.00;97035.09;5039042;28;20547;-63
2023/11/20 05:21:00;;;;;;;7.90;1.40;;;;;;;9.14;100.00;97033.13;5030957;28;20128;-63
2023/11/20 05:23:27;;;;;;;10.35;2.67;;;;;;;8.95;100.00;97036.16;5029973;28;20045;-63
2023/11/20 05:25:55;;;;;;;11.13;1.90;;;;;;;8.96;100.00;97037.78;5042392;28;20044;-63
2023/11/20 05:28:21;;;;;;;9.75;1.52;;;;;;;9.02;100.00;97035.13;5041047;28;20050;-63
2023/11/20 05:30:48;;;;;;;13.10;1.98;;;;;;;9.10;100.00;97037.41;5037854;28;20042;-62
2023/11/20 05:33:15;;;;;;;5.05;1.23;;;;;;;9.19;100.00;97040.50;5028602;28;20120;-62
2023/11/20 05:35:41;;;;;;;7.00;1.15;;;;;;;9.15;100.00;97040.19;5034624;28;20040;-63
2023/11/20 05:38:08;;;;;;;6.22;1.08;;;;;;;9.09;100.00;97038.47;5031262;28;20048;-62
2023/11/20 05:40:34;;;;;;;4.85;1.30;;;;;;;9.11;100.00;97044.47;5046772;28;20456;-62
2023/11/20 05:43:02;;;;;;;8.52;1.67;;;;;;;9.20;100.00;97039.44;5039863;28;20481;-62
2023/11/20 05:45:29;;;;;;;6.22;1.30;;;;;;;9.23;100.00;97042.47;5046085;28;20045;-62
2023/11/20 05:47:55;;;;;;;8.15;1.35;;;;;;;9.17;100.00;97032.66;5036853;28;20042;-62
2023/11/20 05:50:22;;;;;;;8.52;1.05;;;;;;;9.16;100.00;97030.19;5042569;28;20044;-62
2023/11/20 05:52:48;;;;;;;7.85;1.30;;;;;;;9.04;100.00;97030.31;5038528;28;20044;-62
2023/11/20 05:55:15;;;;;;;6.20;1.05;;;;;;;9.07;100.00;97027.94;5041039;28;20092;-62
2023/11/20 05:57:41;;;;;;;11.68;1.90;;;;;;;9.13;100.00;97023.41;5050463;28;20127;-62
2023/11/20 06:00:10;;;;;;;11.93;1.38;;;;;;;9.08;100.00;97026.88;5052303;28;20068;-62
2023/11/20 06:02:37;;;;;;;7.07;1.38;;;;;;;8.92;100.00;97028.53;5043434;28;20052;-62
2023/11/20 06:05:04;;;;;;;6.78;1.58;;;;;;;8.94;100.00;97031.81;5035989;28;20042;-63
2023/11/20 06:07:34;;;;;;;6.20;0.80;;;;;;;8.97;100.00;97023.22;5047208;28;20048;-62
2023/11/20 06:10:02;;;;;;;7.85;1.45;;;;;;;9.03;100.00;97021.38;5039276;28;20061;-62
2023/11/20 06:12:29;;;;;;;6.57;1.80;;;;;;;9.03;100.00;97032.19;5045287;28;20068;-62
2023/11/20 06:14:55;;;;;;;6.55;1.42;;;;;;;8.95;100.00;97024.53;5043816;28;20483;-63
2023/11/20 06:17:22;;;;;;;9.65;2.22;;;;;;;9.08;100.00;97029.59;5038122;28;20060;-62
2023/11/20 06:19:49;;;;;;;5.43;1.13;;;;;;;9.08;99.97;97032.28;5036227;28;20505;-61
2023/11/20 06:22:15;;;;;;;6.75;1.42;;;;;;;9.10;99.71;97032.84;5038132;28;20042;-62
2023/11/20 06:24:43;;;;;;;6.72;1.75;;;;;;;8.93;100.00;97043.69;5044277;28;20626;-63
2023/11/20 06:27:09;;;;;;;7.47;1.17;;;;;;;9.02;100.00;97046.78;5034783;28;20045;-63
2023/11/20 06:29:36;;;;;;;8.60;1.88;;;;;;;8.98;100.00;97042.94;5034806;28;20106;-62
2023/11/20 06:32:03;;;;;;;7.75;1.42;;;;;;;8.91;100.00;97045.00;5046816;28;20340;-64
2023/11/20 06:34:29;;;;;;;9.02;2.10;;;;;;;8.82;100.00;97045.41;5037045;28;20041;-61
2023/11/20 06:36:56;;;;;;;8.95;1.23;;;;;;;8.70;100.00;97056.31;5042109;28;20041;-61
2023/11/20 06:39:23;;;;;;;8.57;2.40;;;;;;;8.68;100.00;97061.16;5036677;28;20741;-62
2023/11/20 06:41:50;;;;;;;8.40;1.70;;;;;;;8.76;100.00;97067.19;5051893;28;20044;-62
2023/11/20 06:44:16;;;;;;;9.43;1.45;;;;;;;8.73;100.00;97081.19;5043604;28;20052;-62
2023/11/20 06:46:46;;;;;;;8.05;1.33;;;;;;;8.70;100.00;97072.53;5041545;28;20046;-62
2023/11/20 06:49:12;;;;;;;9.02;1.48;;;;;;;8.78;100.00;97065.06;5038452;28;20045;-62
2023/11/20 06:51:42;;;;;;;8.63;1.52;;;;;;;8.77;100.00;97066.16;5045007;28;20294;-61
2023/11/20 06:54:09;;;;;;;7.97;1.67;;;;;;;8.78;100.00;97065.91;5041233;28;20038;-61
2023/11/20 06:56:36;;;;;;;9.93;1.75;;;;;;;8.83;100.00;97063.28;5039734;28;20053;-61
2023/11/20 06:59:03;;;;;;;9.73;1.50;;;;;;;8.75;100.00;97065.56;5052071;28;20041;-62
2023/11/20 07:01:29;;;;;;;13.32;1.63;;;;;;;8.77;100.00;97066.16;5039676;28;20551;-63
2023/11/20 07:03:58;;;;;;;7.35;1.83;;;;;;;8.74;100.00;97072.84;5045027;28;20043;-62
2023/11/20 07:06:26;;;;;;;9.05;1.75;;;;;;;8.89;100.00;97063.34;5034668;28;20053;-62
2023/11/20 07:08:54;;;;;;;9.45;1.55;;;;;;;8.90;100.00;97068.50;5050128;28;20118;-61
2023/11/20 07:11:21;;;;;;;8.30;1.27;;;;;;;8.89;100.00;97066.88;5041504;28;20049;-61
2023/11/20 07:13:48;;;;;;;7.38;1.30;;;;;;;8.95;100.00;97083.94;5038520;28;20036;-62
2023/11/20 07:16:14;;;;;;;7.47;1.33;;;;;;;8.95;100.00;97075.81;5035717;28;20044;-61
2023/11/20 07:18:41;;;;;;;5.95;1.33;;;;;;;8.98;100.00;97078.03;5049502;28;20117;-62
2023/11/20 07:21:11;;;;;;;8.75;1.45;;;;;;;9.01;100.00;97085.66;5039670;28;20047;-62
2023/11/20 07:23:37;;;;;;;6.80;1.17;;;;;;;9.11;100.00;97085.78;5037838;28;21662;-62
2023/11/20 07:26:04;;;;;;;10.15;1.42;;;;;;;9.05;100.00;97083.25;5046672;28;20040;-62
2023/11/20 07:28:30;;;;;;;8.07;1.60;;;;;;;9.04;100.00;97085.16;5040809;28;20551;-62
2023/11/20 07:30:57;;;;;;;9.75;1.40;;;;;;;8.96;100.00;97083.69;5040311;28;20064;-63
2023/11/20 07:33:23;;;;;;;10.10;1.35;;;;;;;8.98;100.00;97080.75;5031058;28;20152;-62
2023/11/20 07:35:51;;;;;;;5.82;1.30;;;;;;;9.17;100.00;97083.97;5031633;28;20037;-62
2023/11/20 07:38:18;;;;;;;7.65;1.25;;;;;;;9.15;100.00;97088.81;5034069;28;20631;-61
2023/11/20 07:40:45;;;;;;;5.18;1.10;;;;;;;9.08;100.00;97082.78;5040122;28;20045;-62
2023/11/20 07:43:12;;;;;;;6.70;1.52;;;;;;;9.13;100.00;97084.75;5029627;28;20072;-62
2023/11/20 07:45:38;;;;;;;4.93;1.05;;;;;;;9.32;100.00;97085.25;5035826;28;20115;-61
2023/11/20 07:48:07;;;;;;;5.72;1.13;;;;;;;9.46;99.57;97080.25;5042143;28;20052;-61
2023/11/20 07:50:34;;;;;;;9.85;1.45;;;;;;;9.27;100.00;97077.88;5040565;28;20527;-62
2023/11/20 07:53:00;;;;;;;6.97;1.30;;;;;;;9.22;100.00;97075.13;5039697;28;20646;-62
2023/11/20 07:55:27;;;;;;;9.63;1.52;;;;;;;9.26;100.00;97078.13;5039301;28;20055;-61
2023/11/20 07:57:54;;;;;;;7.95;1.35;;;;;;;9.35;99.98;97073.91;5043222;28;20536;-61
2023/11/20 08:00:21;;;;;;;7.03;1.27;;;;;;;9.34;100.00;97067.72;5040990;28;20121;-62
2023/11/20 08:02:48;;;;;;;4.78;1.20;;;;;;;9.46;100.00;97069.47;5032838;28;20119;-61
2023/11/20 08:05:18;;;;;;;9.13;1.50;;;;;;;9.30;100.00;97071.16;5041478;28;20044;-62
2023/11/20 08:07:45;;;;;;;6.57;1.23;;;;;;;9.30;100.00;97076.56;5032530;28;20045;-62
2023/11/20 08:10:12;;;;;;;9.35;1.35;;;;;;;9.28;100.00;97071.41;5035377;28;20534;-61
2023/11/20 08:12:39;;;;;;;6.47;1.20;;;;;;;9.25;100.00;97071.91;5038176;28;20042;-62
2023/11/20 08:15:06;;;;;;;9.68;1.52;;;;;;;9.19;100.00;97059.41;5036036;28;20688;-63
2023/11/20 08:17:33;;;;;;;3.90;1.00;;;;;;;9.23;100.00;97064.06;5041018;28;20040;-62
2023/11/20 08:20:00;;;;;;;7.63;1.75;;;;;;;9.37;100.00;97061.00;5039517;28;20044;-62
2023/11/20 08:22:26;;;;;;;5.07;1.10;;;;;;;9.42;100.00;97071.03;5036069;28;20126;-62
2023/11/20 08:24:53;;;;;;;7.00;1.20;;;;;;;9.46;100.00;97064.88;5042454;28;20626;-62
2023/11/20 08:27:19;;;;;;;6.35;2.20;;;;;;;9.49;99.73;97064.38;5038807;28;20052;-61
2023/11/20 08:29:46;;;;;;;7.30;1.00;;;;;;;9.47;99.50;97063.00;5035673;28;20094;-63
2023/11/20 08:32:12;;;;;;;6.30;0.90;;;;;;;9.51;99.80;97066.81;5049788;28;20040;-62
2023/11/20 08:34:39;;;;;;;4.82;1.00;;;;;;;9.52;99.74;97064.94;5037235;28;20045;-62
2023/11/20 08:37:06;;;;;;;6.43;1.42;;;;;;;9.49;99.81;97072.50;5051911;28;20064;-62
2023/11/20 08:39:34;;;;;;;6.78;1.50;;;;;;;9.58;99.49;97072.84;5038209;28;20130;-62
2023/11/20 08:42:03;;;;;;;5.53;0.82;;;;;;;9.63;99.53;97069.41;5045974;28;20045;-61
2023/11/20 08:44:30;;;;;;;6.75;1.30;;;;;;;9.72;98.47;97067.88;5034961;28;20044;-62
2023/11/20 08:46:56;;;;;;;7.03;1.02;;;;;;;9.74;98.49;97073.03;5033198;28;20104;-61
2023/11/20 08:49:23;;;;;;;4.35;1.30;;;;;;;9.71;98.37;97071.66;5042723;28;20049;-61
2023/11/20 08:51:49;;;;;;;7.10;1.20;;;;;;;9.62;99.56;97070.47;5044775;28;20047;-62
2023/11/20 08:54:27;;;;;;;4.85;0.88;;;;;;;9.78;98.81;97073.31;5029971;28;20045;-62
2023/11/20 08:56:54;;;;;;;5.90;0.93;;;;;;;9.63;99.60;97062.09;5037793;28;20051;-62
2023/11/20 08:59:21;;;;;;;4.57;1.17;;;;;;;9.64;99.25;97062.91;5042528;28;20528;-60
2023/11/20 09:01:47;;;;;;;5.75;1.27;;;;;;;9.66;99.88;97060.75;5041486;28;20045;-61
2023/11/20 09:04:14;;;;;;;9.15;1.13;;;;;;;9.79;98.90;97056.84;5044167;28;20069;-62
2023/11/20 09:06:42;;;;;;;10.07;1.65;;;;;;;9.75;99.41;97053.84;5044218;28;20124;-62
2023/11/20 09:09:09;;;;;;;10.45;1.60;;;;;;;9.67;99.64;97058.88;5035272;28;20094;-62
2023/11/20 09:11:35;;;;;;;6.03;1.25;;;;;;;9.70;99.88;97058.38;5031343;28;20042;-62
2023/11/20 09:14:02;;;;;;;7.22;1.42;;;;;;;9.78;100.00;97065.22;5045209;28;20068;-62
2023/11/20 09:16:29;;;;;;;9.70;1.77;;;;;;;9.81;100.00;97062.00;5050108;28;20583;-62
2023/11/20 09:18:55;;;;;;;10.52;1.13;;;;;;;9.91;100.00;97064.81;5038029;28;20128;-61
2023/11/20 09:21:22;;;;;;;5.82;1.20;;;;;;;10.04;98.85;97062.75;5040993;28;20045;-61
2023/11/20 09:23:49;;;;;;;10.20;1.05;;;;;;;10.22;99.89;97062.41;5048119;28;20040;-61
2023/11/20 09:26:16;;;;;;;8.60;1.55;;;;;;;10.13;99.09;97063.94;5036032;28;20052;-61
2023/11/20 09:28:43;;;;;;;8.70;1.48;;;;;;;10.07;100.00;97059.56;5046760;28;20051;-61
2023/11/20 09:31:20;;;;;;;5.95;1.10;;;;;;;10.08;100.00;97062.00;5047358;28;20055;-62
2023/11/20 09:33:48;;;;;;;7.50;1.23;;;;;;;9.99;100.00;97061.63;5049680;28;20055;-62
2023/11/20 09:36:16;;;;;;;8.05;1.50;;;;;;;9.99;100.00;97067.06;5047203;28;20166;-61
2023/11/20 09:38:43;;;;;;;8.48;1.20;;;;;;;9.82;100.00;97063.63;5050777;28;20689;-62
2023/11/20 09:41:10;;;;;;;8.63;1.50;;;;;;;9.61;100.00;97058.84;5044878;28;20047;-62
2023/11/20 09:43:37;;;;;;;5.70;1.10;;;;;;;9.54;100.00;97047.38;5046529;28;20049;-61
2023/11/20 09:46:08;;;;;;;3.90;1.33;;;;;;;9.44;100.00;97044.59;5045208;28;20040;-63
2023/11/20 09:48:37;;;;;;;9.13;1.52;;;;;;;9.22;100.00;97037.31;5051236;28;20052;-64
2023/11/20 09:51:07;;;;;;;7.03;1.42;;;;;;;9.22;100.00;97040.81;5044255;28;20052;-62
2023/11/20 09:53:40;;;;;;;6.15;1.35;;;;;;;9.18;100.00;97036.97;5043571;28;20045;-62
2023/11/20 09:56:09;;;;;;;5.65;1.67;;;;;;;9.10;100.00;97040.09;5048730;28;20044;-62
2023/11/20 09:58:38;;;;;;;8.63;2.28;;;;;;;9.02;100.00;97045.94;5049838;28;20053;-63
2023/11/20 10:01:07;;;;;;;6.68;1.63;;;;;;;9.01;100.00;97050.53;5041448;28;20134;-61
2023/11/20 10:03:37;;;;;;;8.43;1.42;;;;;;;9.02;100.00;97038.66;5047618;28;20532;-62
2023/11/20 10:06:06;;;;;;;9.20;1.35;;;;;;;9.06;100.00;97038.97;5040781;28;20049;-62
2023/11/20 10:08:36;;;;;;;6.00;1.40;;;;;;;9.17;100.00;97040.75;5041568;28;20037;-62
2023/11/20 10:11:04;;;;;;;6.63;2.17;;;;;;;9.20;100.00;97042.13;5042916;28;20293;-63
2023/11/20 10:13:32;;;;;;;8.90;1.90;;;;;;;9.24;100.00;97030.59;5042920;28;20044;-62
2023/11/20 10:15:59;;;;;;;11.95;3.00;;;;;;;9.23;100.00;97026.25;5039733;28;20116;-62
2023/11/20 10:18:27;;;;;;;11.73;2.60;;;;;;;9.28;100.00;97030.09;5044422;28;20048;-58
2023/11/20 10:20:57;;;;;;;12.05;3.15;;;;;;;9.31;100.00;97024.16;5045383;28;20084;-61
2023/11/20 10:23:24;;;;;;;9.40;2.72;;;;;;;9.28;100.00;97022.78;5036942;28;20052;-58
2023/11/20 10:25:51;;;;;;;6.15;1.65;;;;;;;9.24;100.00;97027.06;5050745;28;20037;-63
2023/11/20 10:28:21;;;;;;;6.88;1.65;;;;;;;9.34;100.00;97023.66;5033929;28;20111;-64
2023/11/20 10:30:48;;;;;;;6.32;1.30;;;;;;;9.41;100.00;97036.97;5043649;28;20049;-63
2023/11/20 10:33:20;;;;;;;7.10;1.60;;;;;;;9.60;100.00;97034.75;5047737;28;20037;-63
2023/11/20 10:35:48;;;;;;;4.50;1.23;;;;;;;9.54;100.00;97036.56;5035412;28;20421;-63
2023/11/20 10:38:15;;;;;;;4.68;1.45;;;;;;;9.45;100.00;97030.81;5039385;28;20135;-63
2023/11/20 10:40:48;;;;;;;4.00;0.73;;;;;;;9.57;100.00;97019.03;5041658;28;20555;-63
2023/11/20 10:43:15;;;;;;;2.63;0.77;;;;;;;9.65;100.00;97015.09;5045666;28;20119;-63
2023/11/20 10:45:42;;;;;;;7.90;0.98;;;;;;;9.71;100.00;97014.88;5047373;28;20069;-63
2023/11/20 10:48:08;;;;;;;3.47;0.68;;;;;;;9.61;100.00;97001.25;5039689;28;20415;-63
2023/11/20 10:50:36;;;;;;;4.30;1.35;;;;;;;9.60;100.00;97005.84;5041964;28;20043;-64
2023/11/20 10:53:07;;;;;;;7.93;0.73;;;;;;;9.50;100.00;96987.63;5037045;28;20048;-63
2023/11/20 10:55:50;;;;;;;4.78;1.02;;;;;;;9.58;100.00;96996.38;5044485;28;20045;-63
2023/11/20 10:58:17;;;;;;;3.58;0.65;;;;;;;9.65;100.00;96994.25;5033663;28;20114;-63
2023/11/20 11:00:44;;;;;;;2.67;0.70;;;;;;;9.87;100.00;96993.38;5043001;28;20037;-64
2023/11/20 11:03:11;;;;;;;2.13;0.60;;;;;;;10.00;100.00;96986.75;5044681;28;20046;-63
2023/11/20 11:05:45;;;;;;;4.95;0.85;;;;;;;10.01;100.00;96974.84;5034441;28;20636;-64
2023/11/20 11:08:13;;;;;;;3.15;0.70;;;;;;;9.85;100.00;96972.00;5043737;28;20041;-63
2023/11/20 11:10:42;;;;;;;3.35;0.43;;;;;;;9.88;100.00;96966.06;5040504;28;20102;-66
2023/11/20 11:13:10;;;;;;;1.92;0.50;;;;;;;9.69;100.00;96957.53;5042614;28;20037;-65
2023/11/20 11:15:37;;;;;;;3.03;0.90;;;;;;;9.64;100.00;96968.31;5053865;28;20577;-65
2023/11/20 11:18:12;;;;;;;2.47;0.93;;;;;;;9.79;100.00;96955.97;5044255;28;20045;-65
2023/11/20 11:20:46;;;;;;;2.78;0.45;;;;;;;9.98;100.00;96968.06;5045651;28;20044;-64
2023/11/20 11:23:16;;;;;;;2.00;0.50;;;;;;;10.18;100.00;96969.31;5035790;28;20029;-63
2023/11/20 11:26:02;;;;;;;3.85;0.40;;;;;;;10.20;100.00;96969.00;5050440;28;20053;-64
2023/11/20 11:28:29;;;;;;;6.40;1.10;;;;;;;10.25;100.00;96961.75;5047734;28;20162;-64
2023/11/20 11:30:57;;;;;;;2.55;0.30;;;;;;;10.16;99.38;96957.91;5041758;28;20711;-64
2023/11/20 11:33:30;;;;;;;4.72;0.85;;;;;;;10.22;100.00;96954.19;5049682;28;20045;-63